createdAt,value
2022-11-24T00:00:45.297Z,18.98
2022-11-24T00:03:56.039Z,19.65
2022-11-24T00:06:59.790Z,18.00
2022-11-24T00:10:03.987Z,16.80
2022-11-24T00:13:07.671Z,15.02
2022-11-24T00:16:14.860Z,14.82
2022-11-24T00:19:19.895Z,14.73
2022-11-24T00:22:23.861Z,16.42
2022-11-24T00:25:27.501Z,17.52
2022-11-24T00:28:31.974Z,15.18
2022-11-24T00:31:40.685Z,15.25
2022-11-24T00:34:44.421Z,19.40
2022-11-24T00:37:47.529Z,18.33
2022-11-24T00:40:52.443Z,18.73
2022-11-24T00:43:56.473Z,12.80
2022-11-24T00:46:59.861Z,21.67
2022-11-24T00:50:05.011Z,25.50
2022-11-24T00:53:08.778Z,12.93
2022-11-24T00:56:12.889Z,10.13
2022-11-24T00:59:16.166Z,7.53
2022-11-24T01:02:20.139Z,10.65
2022-11-24T01:05:23.889Z,15.80
2022-11-24T01:08:27.597Z,16.83
2022-11-24T01:11:54.582Z,24.27
2022-11-24T01:14:59.603Z,35.78
2022-11-24T01:18:02.978Z,37.15
2022-11-24T01:21:10.102Z,32.75
2022-11-24T01:24:15.181Z,31.58
2022-11-24T01:27:18.872Z,30.88
2022-11-24T01:30:24.124Z,30.60
2022-11-24T01:33:28.273Z,33.13
2022-11-24T01:36:31.975Z,28.48
2022-11-24T01:39:35.798Z,23.73
2022-11-24T01:42:52.597Z,21.27
2022-11-24T01:45:56.761Z,23.45
2022-11-24T01:49:09.997Z,24.60
2022-11-24T01:52:20.636Z,22.38
2022-11-24T01:55:32.291Z,25.05
2022-11-24T01:58:36.842Z,29.80
2022-11-24T02:01:40.727Z,30.20
2022-11-24T02:04:45.937Z,30.55
2022-11-24T02:07:51.426Z,29.27
2022-11-24T02:10:56.036Z,26.85
2022-11-24T02:14:00.102Z,27.83
2022-11-24T02:17:03.937Z,25.23
2022-11-24T02:20:10.666Z,32.28
2022-11-24T02:23:52.744Z,41.50
2022-11-24T02:26:56.649Z,53.78
2022-11-24T02:30:00.536Z,54.22
2022-11-24T02:33:04.198Z,49.70
2022-11-24T02:36:08.265Z,52.78
2022-11-24T02:39:16.159Z,57.70
2022-11-24T02:42:19.195Z,51.22
2022-11-24T02:45:24.398Z,51.08
2022-11-24T02:48:27.564Z,49.47
2022-11-24T02:51:30.953Z,44.90
2022-11-24T02:54:35.190Z,42.17
2022-11-24T02:57:38.849Z,41.30
2022-11-24T03:00:42.168Z,39.80
2022-11-24T03:03:46.414Z,39.38
2022-11-24T03:06:50.193Z,49.97
2022-11-24T03:09:54.190Z,36.33
2022-11-24T03:12:57.405Z,42.97
2022-11-24T03:16:03.591Z,37.15
2022-11-24T03:19:07.436Z,36.30
2022-11-24T03:22:10.421Z,32.03
2022-11-24T03:25:14.067Z,34.13
2022-11-24T03:28:17.361Z,30.92
2022-11-24T03:31:20.506Z,34.05
2022-11-24T03:34:23.804Z,31.33
2022-11-24T03:37:26.927Z,24.70
2022-11-24T03:40:30.233Z,27.77
2022-11-24T03:43:36.790Z,26.92
2022-11-24T03:46:42.155Z,20.02
2022-11-24T03:49:45.188Z,19.30
2022-11-24T03:52:52.216Z,18.02
2022-11-24T03:55:55.989Z,20.17
2022-11-24T03:58:58.934Z,21.02
2022-11-24T04:02:01.972Z,19.58
2022-11-24T04:05:06.446Z,15.23
2022-11-24T04:08:09.911Z,13.38
2022-11-24T04:11:32.765Z,18.10
2022-11-24T04:14:35.877Z,15.90
2022-11-24T04:17:39.608Z,17.60
2022-11-24T04:20:43.177Z,16.38
2022-11-24T04:23:47.024Z,15.60
2022-11-24T04:26:50.256Z,15.35
2022-11-24T04:29:54.283Z,14.98
2022-11-24T04:32:57.960Z,15.23
2022-11-24T04:36:01.535Z,13.50
2022-11-24T04:39:19.826Z,13.18
2022-11-24T04:42:29.297Z,13.85
2022-11-24T04:45:32.489Z,13.68
2022-11-24T04:48:36.525Z,12.82
2022-11-24T04:51:40.683Z,9.57
2022-11-24T04:54:45.053Z,9.85
2022-11-24T04:57:48.295Z,11.30
2022-11-24T05:00:53.482Z,11.95
2022-11-24T05:03:57.377Z,12.63
2022-11-24T05:07:01.195Z,11.93
2022-11-24T05:10:23.833Z,12.38
2022-11-24T05:13:27.837Z,9.65
2022-11-24T05:16:30.796Z,6.85
2022-11-24T05:19:34.240Z,7.43
2022-11-24T05:22:37.975Z,7.82
2022-11-24T05:25:47.321Z,6.68
2022-11-24T05:28:51.284Z,7.43
2022-11-24T05:31:54.912Z,8.00
2022-11-24T05:34:58.787Z,7.25
2022-11-24T05:38:02.890Z,8.40
2022-11-24T05:41:07.054Z,8.18
2022-11-24T05:44:10.917Z,10.65
2022-11-24T05:47:14.514Z,11.52
2022-11-24T05:50:20.119Z,11.68
2022-11-24T05:53:24.714Z,11.02
2022-11-24T05:56:28.406Z,11.50
2022-11-24T05:59:31.763Z,10.82
2022-11-24T06:02:35.912Z,14.02
2022-11-24T06:05:39.389Z,11.75
2022-11-24T06:08:45.958Z,9.90
2022-11-24T06:11:50.334Z,12.35
2022-11-24T06:14:53.687Z,11.13
2022-11-24T06:17:57.251Z,9.90
2022-11-24T06:21:10.928Z,9.48
2022-11-24T06:24:15.264Z,9.32
2022-11-24T06:27:19.737Z,9.48
2022-11-24T06:30:23.316Z,10.25
2022-11-24T06:33:27.295Z,9.60
2022-11-24T06:36:31.048Z,9.57
2022-11-24T06:39:34.913Z,11.02
2022-11-24T06:42:38.678Z,9.07
2022-11-24T06:45:42.838Z,9.50
2022-11-24T06:48:46.237Z,9.68
2022-11-24T06:51:50.135Z,10.60
2022-11-24T06:54:54.196Z,10.40
2022-11-24T06:57:58.188Z,12.30
2022-11-24T07:01:02.020Z,11.15
2022-11-24T07:04:05.841Z,11.05
2022-11-24T07:07:09.350Z,12.95
2022-11-24T07:10:13.284Z,10.55
2022-11-24T07:13:16.528Z,15.77
2022-11-24T07:16:21.613Z,14.68
2022-11-24T07:19:25.503Z,11.18
2022-11-24T07:22:29.503Z,11.55
2022-11-24T07:25:32.718Z,9.45
2022-11-24T07:28:37.776Z,11.70
2022-11-24T07:31:41.507Z,11.07
2022-11-24T07:34:45.147Z,12.07
2022-11-24T07:37:48.651Z,14.60
2022-11-24T07:40:53.002Z,10.88
2022-11-24T07:43:56.663Z,15.50
2022-11-24T07:47:00.646Z,16.17
2022-11-24T07:50:04.338Z,11.65
2022-11-24T07:53:07.850Z,9.93
2022-11-24T07:56:11.838Z,11.35
2022-11-24T07:59:16.158Z,14.80
2022-11-24T08:02:20.154Z,18.85
2022-11-24T08:05:24.180Z,16.15
2022-11-24T08:08:27.958Z,9.98
2022-11-24T08:11:35.120Z,9.55
2022-11-24T08:14:37.988Z,15.95
2022-11-24T08:17:41.897Z,7.88
2022-11-24T08:20:45.444Z,7.45
2022-11-24T08:23:48.346Z,9.27
2022-11-24T08:26:52.095Z,14.45
2022-11-24T08:29:55.292Z,11.30
2022-11-24T08:33:02.782Z,10.05
2022-11-24T08:36:09.028Z,7.57
2022-11-24T08:39:12.540Z,9.25
2022-11-24T08:42:16.905Z,7.55
2022-11-24T08:45:22.028Z,12.50
2022-11-24T08:48:27.134Z,11.40
2022-11-24T08:51:30.963Z,16.15
2022-11-24T08:54:35.314Z,17.42
2022-11-24T08:57:39.143Z,20.98
2022-11-24T09:00:43.198Z,26.98
2022-11-24T09:03:51.000Z,24.58
2022-11-24T09:06:55.223Z,20.85
2022-11-24T09:09:58.829Z,23.65
2022-11-24T09:13:02.601Z,23.48
2022-11-24T09:16:17.889Z,21.02
2022-11-24T09:19:21.740Z,19.73
2022-11-24T09:22:24.666Z,24.13
2022-11-24T09:25:28.226Z,23.55
2022-11-24T09:28:31.187Z,21.83
2022-11-24T09:31:36.561Z,21.13
2022-11-24T09:34:40.189Z,19.40
2022-11-24T09:37:45.826Z,21.52
2022-11-24T09:40:50.446Z,21.80
2022-11-24T09:44:04.566Z,22.50
2022-11-24T09:47:23.241Z,23.80
2022-11-24T09:50:29.255Z,13.70
2022-11-24T09:53:57.142Z,19.00
2022-11-24T09:57:02.141Z,18.67
2022-11-24T10:00:13.894Z,19.30
2022-11-24T10:03:24.172Z,18.67
2022-11-24T10:06:35.668Z,21.23
2022-11-24T10:09:57.064Z,17.85
2022-11-24T10:13:25.172Z,18.42
2022-11-24T10:16:51.379Z,18.15
2022-11-24T10:20:04.679Z,19.92
2022-11-24T10:23:25.719Z,12.13
2022-11-24T10:26:38.510Z,17.25
2022-11-24T10:29:43.981Z,21.45
2022-11-24T10:32:50.748Z,20.20
2022-11-24T10:35:59.298Z,18.65
2022-11-24T10:39:13.473Z,24.20
2022-11-24T10:42:26.755Z,24.58
2022-11-24T10:45:33.725Z,25.80
2022-11-24T10:48:47.861Z,30.95
2022-11-24T10:52:12.583Z,29.73
2022-11-24T10:55:16.747Z,33.70
2022-11-24T10:58:29.606Z,30.27
2022-11-24T11:01:36.651Z,25.42
2022-11-24T11:04:39.613Z,29.45
2022-11-24T11:07:42.817Z,31.67
2022-11-24T11:10:49.107Z,29.90
2022-11-24T11:14:04.936Z,26.00
2022-11-24T11:17:37.101Z,19.65
2022-11-24T11:20:41.070Z,18.83
2022-11-24T11:23:46.578Z,9.98
2022-11-24T11:27:01.790Z,11.45
2022-11-24T11:34:21.819Z,11.23
2022-11-24T11:37:33.162Z,17.55
2022-11-24T11:40:37.676Z,17.77
2022-11-24T11:43:42.250Z,15.73
2022-11-24T11:46:46.838Z,17.80
2022-11-24T11:49:56.564Z,14.52
2022-11-24T11:53:34.643Z,14.93
2022-11-24T11:56:45.734Z,14.70
2022-11-24T12:00:05.334Z,16.00
2022-11-24T12:03:48.759Z,15.00
2022-11-24T12:07:11.236Z,13.45
2022-11-24T12:10:36.231Z,13.55
2022-11-24T12:14:03.636Z,12.60
2022-11-24T12:17:21.070Z,15.60
2022-11-24T12:20:56.374Z,19.50
2022-11-24T12:24:12.300Z,19.08
2022-11-24T12:27:32.028Z,21.88
2022-11-24T12:31:08.090Z,24.83
2022-11-24T12:34:39.384Z,25.05
2022-11-24T12:38:18.434Z,22.08
2022-11-24T12:41:42.537Z,18.45
2022-11-24T12:44:55.852Z,16.77
2022-11-24T12:48:05.840Z,12.38
2022-11-24T12:51:39.056Z,12.10
2022-11-24T12:54:48.237Z,10.52
2022-11-24T12:58:25.305Z,9.98
2022-11-24T13:01:48.330Z,13.57
2022-11-24T13:05:13.614Z,12.75
2022-11-24T13:08:17.661Z,12.13
2022-11-24T13:11:23.982Z,10.38
2022-11-24T13:14:37.958Z,9.38
2022-11-24T13:18:02.558Z,9.35
2022-11-24T13:21:04.520Z,9.52
2022-11-24T13:24:21.215Z,11.73
2022-11-24T13:27:43.302Z,9.60
2022-11-24T13:30:46.937Z,9.18
2022-11-24T13:33:51.012Z,11.07
2022-11-24T13:36:54.591Z,13.43
2022-11-24T13:39:58.933Z,14.10
2022-11-24T13:43:03.269Z,13.50
2022-11-24T13:46:11.233Z,13.85
2022-11-24T13:49:21.657Z,14.90
2022-11-24T13:52:40.436Z,16.77
2022-11-24T13:56:04.137Z,19.45
2022-11-24T13:59:25.179Z,19.80
2022-11-24T14:02:30.909Z,18.30
2022-11-24T14:05:39.240Z,24.27
2022-11-24T14:08:42.236Z,26.20
2022-11-24T14:12:00.031Z,23.02
2022-11-24T14:15:23.511Z,18.92
2022-11-24T14:18:29.751Z,16.10
2022-11-24T14:21:43.474Z,20.95
2022-11-24T14:25:02.303Z,17.77
2022-11-24T14:28:22.217Z,18.65
2022-11-24T14:31:26.994Z,19.63
2022-11-24T14:34:32.500Z,17.60
2022-11-24T14:37:36.734Z,16.42
2022-11-24T14:41:14.394Z,14.25
2022-11-24T14:44:27.500Z,15.23
2022-11-24T14:47:39.806Z,14.10
2022-11-24T14:50:43.754Z,12.80
2022-11-24T14:53:51.434Z,11.98
2022-11-24T14:57:04.724Z,11.50
2022-11-24T15:00:22.498Z,11.90
2022-11-24T15:03:25.374Z,12.30
2022-11-24T15:06:28.873Z,14.35
2022-11-24T15:09:45.909Z,15.25
2022-11-24T15:12:59.180Z,15.48
2022-11-24T15:16:05.786Z,13.40
2022-11-24T15:19:16.640Z,14.93
2022-11-24T15:22:41.667Z,14.95
2022-11-24T15:25:44.827Z,15.50
2022-11-24T15:28:48.826Z,14.27
2022-11-24T15:31:53.056Z,14.60
2022-11-24T15:34:57.189Z,14.38
2022-11-24T15:38:00.116Z,13.85
2022-11-24T15:41:17.973Z,13.50
2022-11-24T15:44:21.855Z,12.25
2022-11-24T15:47:25.056Z,12.25
2022-11-24T15:50:28.643Z,11.35
2022-11-24T15:53:39.865Z,11.68
2022-11-24T15:56:43.052Z,9.23
2022-11-24T15:59:49.389Z,7.10
2022-11-24T16:02:53.692Z,9.15
2022-11-24T16:05:59.375Z,9.38
2022-11-24T16:09:03.302Z,7.70
2022-11-24T16:12:11.158Z,6.93
2022-11-24T16:15:18.518Z,4.28
2022-11-24T16:18:22.586Z,4.65
2022-11-24T16:21:25.858Z,3.47
2022-11-24T16:24:29.932Z,3.25
2022-11-24T16:27:33.428Z,2.90
2022-11-24T16:30:36.863Z,2.70
2022-11-24T16:33:41.585Z,3.08
2022-11-24T16:36:45.011Z,2.63
2022-11-24T16:39:50.322Z,2.60
2022-11-24T16:42:54.241Z,2.80
2022-11-24T16:46:22.105Z,2.17
2022-11-24T16:49:25.836Z,1.90
2022-11-24T16:52:28.720Z,2.17
2022-11-24T16:55:32.703Z,3.13
2022-11-24T16:58:39.361Z,2.25
2022-11-24T17:01:42.476Z,2.45
2022-11-24T17:04:46.461Z,2.00
2022-11-24T17:07:49.759Z,1.98
2022-11-24T17:10:53.571Z,2.45
2022-11-24T17:13:58.805Z,2.35
2022-11-24T17:17:02.933Z,2.10
2022-11-24T17:20:07.739Z,2.53
2022-11-24T17:23:11.337Z,3.47
2022-11-24T17:26:16.961Z,4.43
2022-11-24T17:29:20.570Z,4.95
2022-11-24T17:32:23.472Z,4.95
2022-11-24T17:35:26.881Z,3.20
2022-11-24T17:38:31.487Z,4.15
2022-11-24T17:41:35.598Z,3.20
2022-11-24T17:44:38.474Z,3.92
2022-11-24T17:47:42.470Z,4.05
2022-11-24T17:50:45.367Z,4.35
2022-11-24T17:53:51.461Z,4.57
2022-11-24T17:56:54.551Z,3.38
2022-11-24T17:59:58.520Z,2.67
2022-11-24T18:03:02.227Z,2.65
2022-11-24T18:06:10.597Z,2.70
2022-11-24T18:09:14.264Z,2.75
2022-11-24T18:12:17.374Z,1.70
2022-11-24T18:15:21.581Z,2.20
2022-11-24T18:18:24.654Z,2.30
2022-11-24T18:21:27.669Z,2.30
2022-11-24T18:24:31.265Z,2.05
2022-11-24T18:27:35.197Z,2.88
2022-11-24T18:30:38.950Z,2.13
2022-11-24T18:33:43.958Z,1.85
2022-11-24T18:36:51.885Z,1.80
2022-11-24T18:39:55.484Z,2.45
2022-11-24T18:42:59.754Z,2.33
2022-11-24T18:46:08.747Z,3.28
2022-11-24T18:49:13.038Z,7.13
2022-11-24T18:52:17.027Z,9.90
2022-11-24T18:55:19.975Z,7.20
2022-11-24T18:58:24.130Z,4.65
2022-11-24T19:01:29.686Z,3.10
2022-11-24T19:04:33.785Z,3.85
2022-11-24T19:07:37.111Z,3.33
2022-11-24T19:10:41.105Z,3.22
2022-11-24T19:13:44.702Z,4.10
2022-11-24T19:16:49.086Z,3.58
2022-11-24T19:19:52.995Z,3.50
2022-11-24T19:22:56.913Z,3.47
2022-11-24T19:26:04.243Z,3.50
2022-11-24T19:29:08.319Z,2.30
2022-11-24T19:32:12.118Z,1.90
2022-11-24T19:35:16.097Z,2.13
2022-11-24T19:38:19.793Z,1.98
2022-11-24T19:41:29.286Z,1.95
2022-11-24T19:44:32.594Z,1.65
2022-11-24T19:47:36.682Z,1.95
2022-11-24T19:50:39.970Z,2.17
2022-11-24T19:53:44.283Z,1.85
2022-11-24T19:56:47.866Z,2.10
2022-11-24T19:59:52.145Z,1.52
2022-11-24T20:02:55.810Z,1.95
2022-11-24T20:05:58.818Z,2.17
2022-11-24T20:09:02.714Z,2.58
2022-11-24T20:12:06.756Z,2.05
2022-11-24T20:15:10.906Z,2.17
2022-11-24T20:18:14.475Z,6.05
2022-11-24T20:21:20.789Z,5.82
2022-11-24T20:24:25.714Z,4.15
2022-11-24T20:27:29.355Z,3.30
2022-11-24T20:30:33.750Z,5.22
2022-11-24T20:33:38.081Z,5.05
2022-11-24T20:36:44.394Z,6.53
2022-11-24T20:39:48.374Z,4.35
2022-11-24T20:42:51.945Z,3.22
2022-11-24T20:45:55.974Z,2.08
2022-11-24T20:49:00.558Z,4.03
2022-11-24T20:52:04.124Z,2.30
2022-11-24T20:55:08.531Z,2.50
2022-11-24T20:58:12.047Z,2.20
2022-11-24T21:01:39.140Z,4.10
2022-11-24T21:04:42.763Z,2.55
2022-11-24T21:07:46.129Z,2.33
2022-11-24T21:10:57.451Z,3.17
2022-11-24T21:14:01.408Z,3.47
2022-11-24T21:17:04.403Z,2.70
2022-11-24T21:20:10.949Z,2.80
2022-11-24T21:23:14.829Z,2.85
2022-11-24T21:26:19.295Z,2.72
2022-11-24T21:29:23.975Z,2.90
2022-11-24T21:32:29.052Z,2.40
2022-11-24T21:35:35.757Z,2.03
2022-11-24T21:38:40.108Z,3.53
2022-11-24T21:41:44.078Z,2.13
2022-11-24T21:44:48.076Z,3.03
2022-11-24T21:47:53.480Z,2.60
2022-11-24T21:50:59.757Z,2.60
2022-11-24T21:54:03.522Z,3.08
2022-11-24T21:57:06.418Z,3.22
2022-11-24T22:00:09.637Z,4.03
2022-11-24T22:03:12.986Z,3.40
2022-11-24T22:06:19.570Z,3.17
2022-11-24T22:09:22.557Z,2.65
2022-11-24T22:12:26.271Z,3.53
2022-11-24T22:15:29.817Z,2.50
2022-11-24T22:18:38.566Z,2.80
2022-11-24T22:21:41.538Z,4.13
2022-11-24T22:24:44.694Z,2.42
2022-11-24T22:27:47.724Z,3.00
2022-11-24T22:30:50.662Z,2.97
2022-11-24T22:33:55.161Z,3.58
2022-11-24T22:36:58.756Z,4.45
2022-11-24T22:40:01.891Z,2.88
2022-11-24T22:43:04.824Z,3.22
2022-11-24T22:46:13.648Z,3.15
2022-11-24T22:49:17.869Z,3.90
2022-11-24T22:52:21.718Z,4.20
2022-11-24T22:55:25.992Z,3.30
2022-11-24T22:58:30.699Z,3.22
2022-11-24T23:01:35.221Z,3.17
2022-11-24T23:04:39.755Z,3.58
2022-11-24T23:07:43.072Z,3.38
2022-11-24T23:10:46.546Z,2.22
2022-11-24T23:13:54.033Z,2.97
2022-11-24T23:17:01.435Z,3.65
2022-11-24T23:20:05.146Z,2.75
2022-11-24T23:23:09.621Z,2.58
2022-11-24T23:26:22.259Z,1.90
2022-11-24T23:29:26.638Z,3.08
2022-11-24T23:32:30.626Z,2.95
2022-11-24T23:35:34.483Z,2.53
2022-11-24T23:38:39.088Z,2.67
2022-11-24T23:41:42.315Z,1.63
2022-11-24T23:44:46.459Z,2.67
2022-11-24T23:47:49.872Z,3.47
2022-11-24T23:50:53.867Z,3.97
2022-11-24T23:53:58.892Z,4.03
2022-11-24T23:57:03.061Z,2.80
